createdAt,value
2018-12-27T00:02:03.489Z,44.80
2018-12-27T00:04:31.588Z,43.43
2018-12-27T00:06:59.652Z,41.90
2018-12-27T00:09:27.721Z,41.80
2018-12-27T00:11:55.805Z,42.97
2018-12-27T00:14:23.928Z,40.60
2018-12-27T00:16:52.016Z,39.10
2018-12-27T00:19:20.084Z,39.97
2018-12-27T00:21:48.156Z,41.17
2018-12-27T00:24:16.277Z,40.33
2018-12-27T00:26:44.727Z,41.63
2018-12-27T00:29:12.835Z,41.33
2018-12-27T00:31:41.131Z,40.73
2018-12-27T00:34:09.327Z,40.97
2018-12-27T00:36:37.450Z,38.40
2018-12-27T00:39:05.925Z,38.80
2018-12-27T00:41:34.076Z,40.23
2018-12-27T00:44:02.160Z,40.07
2018-12-27T00:46:30.238Z,39.43
2018-12-27T00:48:58.320Z,37.83
2018-12-27T00:51:26.412Z,38.13
2018-12-27T00:53:54.455Z,38.53
2018-12-27T00:56:22.525Z,39.70
2018-12-27T00:58:50.706Z,38.23
2018-12-27T01:01:19.269Z,38.40
2018-12-27T01:03:47.485Z,38.33
2018-12-27T01:06:15.928Z,37.97
2018-12-27T01:08:45.165Z,37.70
2018-12-27T01:11:13.265Z,35.27
2018-12-27T01:13:41.491Z,34.67
2018-12-27T01:16:09.557Z,37.33
2018-12-27T01:18:37.736Z,37.33
2018-12-27T01:21:05.996Z,36.70
2018-12-27T01:23:34.082Z,35.93
2018-12-27T01:26:02.138Z,34.80
2018-12-27T01:28:30.200Z,35.30
2018-12-27T01:30:58.273Z,34.93
2018-12-27T01:33:26.350Z,35.03
2018-12-27T01:35:54.427Z,32.80
2018-12-27T01:38:22.447Z,33.00
2018-12-27T01:40:50.481Z,33.10
2018-12-27T01:43:18.621Z,32.10
2018-12-27T01:45:46.789Z,32.57
2018-12-27T01:48:15.020Z,33.00
2018-12-27T01:50:43.154Z,33.17
2018-12-27T01:53:11.623Z,32.83
2018-12-27T01:55:39.766Z,32.23
2018-12-27T01:58:07.986Z,32.57
2018-12-27T02:00:36.145Z,33.20
2018-12-27T02:03:04.341Z,32.67
2018-12-27T02:05:32.605Z,33.97
2018-12-27T02:08:00.705Z,31.63
2018-12-27T02:10:28.744Z,32.93
2018-12-27T02:12:56.738Z,32.47
2018-12-27T02:15:25.000Z,33.40
2018-12-27T02:17:53.118Z,34.23
2018-12-27T02:20:22.380Z,31.37
2018-12-27T02:22:50.819Z,34.00
2018-12-27T02:25:19.064Z,32.00
2018-12-27T02:27:47.208Z,34.33
2018-12-27T02:30:15.568Z,34.03
2018-12-27T02:32:43.780Z,32.80
2018-12-27T02:35:12.228Z,32.43
2018-12-27T02:37:40.501Z,32.53
2018-12-27T02:40:08.652Z,31.27
2018-12-27T02:42:36.844Z,33.67
2018-12-27T02:45:05.026Z,31.83
2018-12-27T02:47:33.228Z,34.97
2018-12-27T02:50:01.288Z,33.60
2018-12-27T02:52:29.348Z,34.33
2018-12-27T02:54:57.714Z,33.47
2018-12-27T02:57:25.993Z,31.63
2018-12-27T02:59:54.259Z,33.87
2018-12-27T03:02:22.677Z,33.17
2018-12-27T03:04:50.812Z,33.40
2018-12-27T03:07:18.958Z,32.83
2018-12-27T03:09:47.612Z,32.03
2018-12-27T03:12:15.862Z,32.13
2018-12-27T03:14:44.160Z,31.37
2018-12-27T03:17:12.392Z,31.17
2018-12-27T03:19:40.832Z,32.73
2018-12-27T03:22:08.957Z,31.83
2018-12-27T03:24:37.239Z,31.43
2018-12-27T03:27:05.316Z,31.53
2018-12-27T03:29:33.399Z,31.73
2018-12-27T03:32:01.489Z,30.80
2018-12-27T03:34:29.698Z,29.57
2018-12-27T03:36:57.806Z,30.07
2018-12-27T03:39:25.989Z,31.93
2018-12-27T03:41:54.139Z,32.10
2018-12-27T03:44:22.197Z,31.63
2018-12-27T03:46:50.440Z,30.57
2018-12-27T03:49:18.497Z,29.60
2018-12-27T03:51:46.690Z,31.00
2018-12-27T03:54:14.874Z,30.80
2018-12-27T03:56:43.177Z,29.40
2018-12-27T03:59:11.277Z,31.03
2018-12-27T04:01:39.629Z,32.03
2018-12-27T04:04:07.820Z,33.30
2018-12-27T04:06:35.953Z,32.60
2018-12-27T04:09:05.556Z,31.57
2018-12-27T04:11:33.748Z,34.00
2018-12-27T04:14:01.833Z,33.20
2018-12-27T04:16:29.899Z,31.20
2018-12-27T04:18:57.979Z,33.07
2018-12-27T04:21:26.195Z,34.67
2018-12-27T04:23:55.559Z,34.57
2018-12-27T04:26:23.796Z,34.53
2018-12-27T04:28:51.925Z,33.43
2018-12-27T04:31:21.093Z,33.97
2018-12-27T04:33:50.521Z,35.33
2018-12-27T04:36:19.627Z,33.63
2018-12-27T04:38:47.729Z,36.47
2018-12-27T04:41:15.791Z,35.23
2018-12-27T04:43:44.809Z,36.70
2018-12-27T04:46:12.893Z,35.20
2018-12-27T04:48:41.026Z,35.07
2018-12-27T04:51:09.192Z,36.73
2018-12-27T04:53:37.331Z,35.23
2018-12-27T04:56:05.379Z,35.73
2018-12-27T04:58:33.542Z,37.50
2018-12-27T05:01:01.594Z,38.23
2018-12-27T05:03:29.686Z,38.40
2018-12-27T05:05:57.806Z,37.13
2018-12-27T05:08:26.063Z,39.67
2018-12-27T05:10:54.129Z,37.77
2018-12-27T05:13:22.333Z,39.27
2018-12-27T05:15:50.541Z,36.43
2018-12-27T05:18:18.622Z,36.60
2018-12-27T05:20:46.862Z,36.40
2018-12-27T05:23:14.892Z,37.33
2018-12-27T05:25:42.912Z,37.60
2018-12-27T05:28:11.134Z,36.73
2018-12-27T05:30:39.490Z,38.83
2018-12-27T05:33:07.598Z,38.20
2018-12-27T05:35:35.712Z,37.63
2018-12-27T05:38:03.977Z,37.87
2018-12-27T05:40:32.037Z,37.07
2018-12-27T05:43:00.230Z,38.17
2018-12-27T05:45:28.283Z,39.47
2018-12-27T05:47:56.355Z,39.17
2018-12-27T05:50:24.579Z,37.70
2018-12-27T05:52:52.798Z,37.03
2018-12-27T05:55:20.966Z,37.23
2018-12-27T05:57:49.080Z,37.80
2018-12-27T06:00:17.291Z,34.83
2018-12-27T06:02:45.384Z,36.40
2018-12-27T06:05:13.479Z,35.87
2018-12-27T06:07:41.630Z,35.93
2018-12-27T06:10:09.696Z,36.63
2018-12-27T06:12:37.819Z,36.60
2018-12-27T06:15:06.633Z,34.97
2018-12-27T06:17:34.782Z,34.93
2018-12-27T06:20:03.105Z,32.37
2018-12-27T06:22:31.307Z,32.97
2018-12-27T06:24:59.361Z,33.30
2018-12-27T06:27:27.524Z,33.47
2018-12-27T06:29:55.573Z,31.17
2018-12-27T06:32:23.785Z,30.63
2018-12-27T06:34:51.957Z,30.60
2018-12-27T06:37:20.048Z,31.37
2018-12-27T06:39:48.231Z,31.57
2018-12-27T06:42:16.708Z,30.93
2018-12-27T06:44:44.816Z,30.27
2018-12-27T06:47:13.020Z,31.73
2018-12-27T06:49:41.215Z,31.77
2018-12-27T06:52:09.390Z,31.33
2018-12-27T06:54:37.466Z,31.50
2018-12-27T06:57:05.698Z,31.70
2018-12-27T06:59:33.816Z,31.60
2018-12-27T07:02:02.042Z,30.87
2018-12-27T07:04:30.212Z,32.23
2018-12-27T07:06:58.354Z,31.13
2018-12-27T07:09:26.567Z,30.27
2018-12-27T07:11:56.343Z,31.40
2018-12-27T07:14:24.702Z,32.47
2018-12-27T07:16:54.020Z,30.30
2018-12-27T07:19:22.294Z,33.07
2018-12-27T07:21:50.533Z,32.67
2018-12-27T07:24:18.616Z,32.87
2018-12-27T07:26:46.663Z,32.80
2018-12-27T07:29:14.878Z,32.33
2018-12-27T07:31:43.324Z,34.40
2018-12-27T07:34:11.597Z,33.27
2018-12-27T07:36:39.815Z,34.67
2018-12-27T07:39:08.037Z,34.00
2018-12-27T07:41:36.415Z,36.33
2018-12-27T07:44:04.734Z,34.17
2018-12-27T07:46:33.071Z,34.37
2018-12-27T07:49:01.291Z,35.07
2018-12-27T07:51:29.431Z,35.60
2018-12-27T07:53:57.581Z,35.87
2018-12-27T07:56:25.961Z,36.40
2018-12-27T07:58:55.321Z,36.03
2018-12-27T08:01:23.775Z,38.00
2018-12-27T08:03:52.097Z,37.87
2018-12-27T08:06:20.145Z,38.47
2018-12-27T08:08:48.419Z,38.63
2018-12-27T08:11:16.507Z,38.93
2018-12-27T08:13:44.635Z,39.13
2018-12-27T08:16:12.931Z,39.37
2018-12-27T08:18:41.310Z,39.23
2018-12-27T08:21:09.615Z,41.17
2018-12-27T08:23:39.770Z,40.07
2018-12-27T08:26:07.963Z,37.43
2018-12-27T08:28:36.076Z,40.23
2018-12-27T08:31:04.260Z,39.13
2018-12-27T08:33:32.348Z,40.37
2018-12-27T08:36:00.825Z,41.27
2018-12-27T08:38:29.144Z,43.23
2018-12-27T08:40:57.223Z,42.07
2018-12-27T08:43:25.465Z,43.47
2018-12-27T08:45:53.737Z,43.83
2018-12-27T08:48:21.911Z,44.50
2018-12-27T08:50:50.321Z,46.33
2018-12-27T08:53:18.864Z,45.47
2018-12-27T08:55:47.192Z,46.67
2018-12-27T08:58:15.638Z,47.33
2018-12-27T09:00:43.670Z,48.57
2018-12-27T09:03:11.969Z,48.33
2018-12-27T09:05:40.087Z,48.60
2018-12-27T09:08:08.216Z,48.43
2018-12-27T09:10:37.169Z,49.07
2018-12-27T09:13:05.513Z,48.33
2018-12-27T09:15:33.723Z,51.00
2018-12-27T09:18:02.117Z,49.50
2018-12-27T09:20:30.387Z,47.77
2018-12-27T09:22:58.701Z,49.83
2018-12-27T09:25:26.890Z,50.27
2018-12-27T09:27:55.369Z,49.63
2018-12-27T09:30:23.584Z,47.97
2018-12-27T09:32:51.951Z,47.80
2018-12-27T09:35:26.233Z,49.60
2018-12-27T09:37:50.361Z,49.20
2018-12-27T09:40:18.500Z,52.60
2018-12-27T09:42:46.723Z,50.03
2018-12-27T09:45:14.960Z,53.50
2018-12-27T09:47:43.229Z,50.00
2018-12-27T09:50:12.497Z,50.40
2018-12-27T09:52:40.892Z,50.80
2018-12-27T09:55:09.388Z,52.40
2018-12-27T09:57:37.564Z,53.70
2018-12-27T10:00:07.574Z,51.00
2018-12-27T10:02:35.837Z,49.17
2018-12-27T10:05:04.743Z,49.97
2018-12-27T10:07:32.931Z,49.57
2018-12-27T10:10:01.219Z,51.53
2018-12-27T10:12:31.327Z,50.87
2018-12-27T10:14:59.474Z,51.07
2018-12-27T10:17:27.579Z,50.03
2018-12-27T10:19:55.920Z,50.20
2018-12-27T10:22:24.255Z,51.67
2018-12-27T10:24:52.336Z,50.53
2018-12-27T10:27:20.397Z,50.70
2018-12-27T10:29:48.453Z,52.93
2018-12-27T10:32:16.686Z,51.77
2018-12-27T10:34:44.844Z,50.67
2018-12-27T10:37:13.299Z,51.33
2018-12-27T10:39:41.379Z,53.10
2018-12-27T10:42:09.709Z,50.90
2018-12-27T10:44:39.237Z,52.80
2018-12-27T10:47:07.494Z,53.73
2018-12-27T10:49:35.562Z,53.93
2018-12-27T10:52:03.785Z,51.97
2018-12-27T10:54:32.089Z,52.10
2018-12-27T10:57:00.316Z,53.57
2018-12-27T10:59:28.729Z,55.20
2018-12-27T11:01:57.041Z,55.00
2018-12-27T11:04:25.227Z,55.00
2018-12-27T11:06:55.145Z,55.20
2018-12-27T11:09:23.605Z,56.07
2018-12-27T11:11:51.806Z,54.93
2018-12-27T11:14:19.885Z,55.53
2018-12-27T11:16:48.279Z,58.30
2018-12-27T11:19:17.476Z,56.50
2018-12-27T11:21:45.688Z,58.20
2018-12-27T11:24:13.789Z,58.10
2018-12-27T11:26:41.884Z,58.77
2018-12-27T11:29:10.951Z,58.27
2018-12-27T11:31:39.151Z,60.27
2018-12-27T11:34:07.520Z,59.00
2018-12-27T11:36:35.837Z,61.27
2018-12-27T11:39:06.272Z,62.00
2018-12-27T11:41:36.321Z,58.30
2018-12-27T11:44:04.768Z,60.07
2018-12-27T11:46:33.141Z,59.80
2018-12-27T11:49:01.428Z,58.97
2018-12-27T11:51:29.545Z,59.57
2018-12-27T11:53:57.717Z,59.17
2018-12-27T11:56:25.777Z,61.07
2018-12-27T11:58:53.898Z,60.47
2018-12-27T12:01:22.050Z,60.27
2018-12-27T12:03:50.209Z,59.73
2018-12-27T12:06:18.299Z,60.47
2018-12-27T12:08:46.409Z,57.07
2018-12-27T12:11:14.512Z,57.90
2018-12-27T12:13:42.611Z,56.70
2018-12-27T12:16:10.836Z,58.00
2018-12-27T12:18:39.038Z,58.53
2018-12-27T12:21:08.356Z,59.47
2018-12-27T12:23:36.623Z,58.73
2018-12-27T12:26:04.739Z,55.43
2018-12-27T12:28:33.067Z,59.83
2018-12-27T12:31:01.141Z,59.70
2018-12-27T12:33:29.201Z,63.60
2018-12-27T12:35:57.517Z,60.27
2018-12-27T12:38:26.007Z,57.13
2018-12-27T12:40:54.219Z,59.73
2018-12-27T12:43:22.285Z,59.70
2018-12-27T12:45:50.333Z,54.67
2018-12-27T12:48:18.408Z,55.70
2018-12-27T12:50:46.541Z,57.57
2018-12-27T12:53:15.092Z,56.60
2018-12-27T12:55:43.221Z,53.83
2018-12-27T12:58:12.249Z,53.80
2018-12-27T13:00:40.523Z,53.27
2018-12-27T13:03:08.655Z,54.27
2018-12-27T13:05:36.733Z,52.57
2018-12-27T13:08:04.814Z,54.87
2018-12-27T13:10:33.028Z,53.77
2018-12-27T13:13:01.406Z,53.53
2018-12-27T13:15:29.480Z,51.50
2018-12-27T13:17:58.112Z,51.10
2018-12-27T13:20:26.214Z,52.40
2018-12-27T13:22:54.306Z,50.20
2018-12-27T13:25:22.440Z,51.40
2018-12-27T13:27:50.605Z,49.97
2018-12-27T13:30:18.801Z,50.80
2018-12-27T13:32:46.978Z,50.97
2018-12-27T13:35:15.262Z,50.00
2018-12-27T13:37:43.331Z,49.97
2018-12-27T13:40:11.441Z,49.53
2018-12-27T13:42:39.728Z,48.77
2018-12-27T13:45:07.915Z,50.07
2018-12-27T13:47:35.896Z,50.90
2018-12-27T13:50:05.100Z,51.20
2018-12-27T13:52:33.303Z,49.57
2018-12-27T13:55:01.428Z,49.93
2018-12-27T13:57:29.512Z,50.40
2018-12-27T13:59:57.709Z,46.50
2018-12-27T14:02:25.904Z,46.57
2018-12-27T14:04:54.440Z,48.37
2018-12-27T14:07:23.642Z,47.00
2018-12-27T14:09:51.853Z,45.43
2018-12-27T14:12:20.122Z,45.67
2018-12-27T14:14:48.264Z,46.10
2018-12-27T14:17:16.382Z,46.97
2018-12-27T14:19:44.638Z,46.30
2018-12-27T14:22:13.025Z,47.93
2018-12-27T14:24:41.378Z,46.50
2018-12-27T14:27:11.944Z,46.30
2018-12-27T14:29:40.138Z,45.77
2018-12-27T14:32:08.328Z,44.27
2018-12-27T14:34:36.705Z,45.67
2018-12-27T14:37:04.834Z,44.87
2018-12-27T14:39:33.059Z,43.73
2018-12-27T14:42:01.212Z,43.80
2018-12-27T14:44:29.497Z,45.10
2018-12-27T14:46:57.766Z,45.90
2018-12-27T14:49:25.801Z,44.53
2018-12-27T14:51:54.186Z,43.40
2018-12-27T14:54:22.487Z,44.13
2018-12-27T14:56:50.863Z,45.27
2018-12-27T14:59:20.166Z,52.45
2018-12-27T15:01:48.371Z,45.33
2018-12-27T15:04:16.737Z,44.40
2018-12-27T15:06:47.911Z,43.53
2018-12-27T15:09:14.978Z,43.43
2018-12-27T15:11:43.139Z,44.20
2018-12-27T15:14:11.390Z,43.17
2018-12-27T15:16:39.705Z,43.40
2018-12-27T15:19:07.932Z,43.53
2018-12-27T15:21:36.060Z,42.33
2018-12-27T15:24:04.361Z,44.67
2018-12-27T15:26:32.413Z,45.47
2018-12-27T15:29:00.640Z,42.83
2018-12-27T15:31:28.701Z,43.63
2018-12-27T15:33:57.269Z,44.97
2018-12-27T15:36:25.377Z,45.83
2018-12-27T15:38:53.810Z,44.73
2018-12-27T15:41:22.098Z,44.13
2018-12-27T15:43:50.257Z,43.33
2018-12-27T15:46:18.406Z,45.87
2018-12-27T15:48:46.798Z,46.57
2018-12-27T15:51:16.286Z,45.60
2018-12-27T15:53:44.371Z,44.43
2018-12-27T15:56:12.544Z,46.63
2018-12-27T15:58:42.051Z,45.13
2018-12-27T16:01:10.420Z,46.63
2018-12-27T16:03:38.797Z,46.67
2018-12-27T16:06:06.989Z,46.47
2018-12-27T16:08:35.112Z,48.73
2018-12-27T16:11:03.405Z,46.07
2018-12-27T16:13:31.674Z,47.70
2018-12-27T16:15:59.880Z,47.70
2018-12-27T16:18:28.274Z,50.50
2018-12-27T16:20:56.774Z,48.67
2018-12-27T16:23:25.091Z,50.03
2018-12-27T16:25:53.245Z,50.40
2018-12-27T16:28:21.403Z,49.07
2018-12-27T16:30:49.767Z,50.60
2018-12-27T16:33:17.891Z,50.60
2018-12-27T16:35:46.065Z,51.53
2018-12-27T16:38:14.266Z,49.77
2018-12-27T16:40:42.820Z,51.40
2018-12-27T16:43:10.919Z,50.57
2018-12-27T16:45:38.952Z,52.07
2018-12-27T16:48:07.080Z,50.83
2018-12-27T16:50:35.076Z,49.93
2018-12-27T16:53:03.437Z,52.30
2018-12-27T16:55:31.578Z,51.27
2018-12-27T16:57:59.912Z,50.30
2018-12-27T17:00:28.082Z,50.80
2018-12-27T17:02:56.501Z,50.50
2018-12-27T17:05:24.638Z,49.53
2018-12-27T17:07:52.781Z,50.90
2018-12-27T17:10:21.003Z,53.40
2018-12-27T17:12:49.079Z,51.47
2018-12-27T17:15:17.232Z,51.27
2018-12-27T17:17:47.836Z,47.13
2018-12-27T17:20:15.997Z,50.40
2018-12-27T17:22:45.857Z,51.77
2018-12-27T17:25:13.986Z,53.40
2018-12-27T17:27:42.083Z,51.60
2018-12-27T17:30:10.196Z,54.07
2018-12-27T17:32:38.394Z,52.43
2018-12-27T17:35:06.647Z,51.83
2018-12-27T17:37:34.820Z,51.67
2018-12-27T17:40:03.347Z,50.93
2018-12-27T17:42:31.730Z,52.27
2018-12-27T17:44:59.855Z,52.53
2018-12-27T17:47:27.925Z,48.73
2018-12-27T17:49:56.074Z,49.70
2018-12-27T17:52:30.190Z,50.03
2018-12-27T17:54:54.447Z,52.30
2018-12-27T17:57:22.466Z,51.57
2018-12-27T17:59:50.541Z,51.73
2018-12-27T18:02:19.124Z,50.50
2018-12-27T18:04:47.252Z,51.87
2018-12-27T18:07:15.403Z,50.30
2018-12-27T18:09:45.739Z,51.00
2018-12-27T18:12:13.572Z,50.60
2018-12-27T18:14:41.848Z,52.50
2018-12-27T18:17:09.854Z,52.00
2018-12-27T18:19:38.032Z,51.53
2018-12-27T18:22:07.184Z,50.50
2018-12-27T18:24:35.436Z,50.20
2018-12-27T18:27:03.527Z,51.63
2018-12-27T18:29:31.718Z,51.40
2018-12-27T18:31:59.898Z,50.00
2018-12-27T18:34:28.056Z,51.10
2018-12-27T18:36:56.181Z,52.03
2018-12-27T18:39:24.332Z,52.57
2018-12-27T18:41:52.593Z,52.17
2018-12-27T18:44:20.659Z,51.77
2018-12-27T18:46:48.795Z,51.77
2018-12-27T18:49:20.658Z,51.07
2018-12-27T18:51:47.270Z,49.53
2018-12-27T18:54:15.509Z,49.97
2018-12-27T18:56:43.953Z,52.50
2018-12-27T18:59:12.190Z,52.67
2018-12-27T19:01:40.366Z,53.90
2018-12-27T19:04:08.687Z,53.00
2018-12-27T19:06:36.986Z,53.87
2018-12-27T19:09:06.875Z,51.40
2018-12-27T19:12:30.883Z,52.33
2018-12-27T19:15:08.119Z,53.20
2018-12-27T19:17:57.199Z,51.97
2018-12-27T19:20:25.491Z,53.33
2018-12-27T19:23:07.895Z,51.87
2018-12-27T19:25:35.997Z,52.33
2018-12-27T19:28:04.371Z,52.97
2018-12-27T19:30:32.875Z,50.10
2018-12-27T19:33:01.051Z,54.10
2018-12-27T19:35:29.255Z,53.43
2018-12-27T19:37:57.428Z,53.80
2018-12-27T19:40:25.528Z,52.97
2018-12-27T19:42:53.753Z,55.37
2018-12-27T19:45:22.216Z,53.07
2018-12-27T19:47:50.460Z,52.87
2018-12-27T19:50:18.650Z,53.90
2018-12-27T19:52:46.760Z,52.73
2018-12-27T19:55:14.878Z,54.77
2018-12-27T19:57:42.975Z,54.63
2018-12-27T20:00:11.256Z,56.37
2018-12-27T20:02:39.487Z,53.93
2018-12-27T20:05:07.611Z,56.20
2018-12-27T20:07:35.735Z,54.07
2018-12-27T20:10:04.416Z,56.37
2018-12-27T20:12:32.565Z,57.27
2018-12-27T20:15:00.786Z,55.30
2018-12-27T20:17:28.844Z,55.73
2018-12-27T20:19:57.014Z,56.00
2018-12-27T20:22:25.050Z,56.17
2018-12-27T20:24:53.310Z,55.67
2018-12-27T20:27:21.408Z,55.97
2018-12-27T20:29:49.597Z,58.37
2018-12-27T20:32:17.717Z,58.17
2018-12-27T20:34:45.904Z,57.57
2018-12-27T20:37:13.981Z,56.60
2018-12-27T20:39:42.158Z,56.50
2018-12-27T20:42:10.364Z,58.43
2018-12-27T20:44:38.579Z,56.77
2018-12-27T20:47:06.742Z,57.53
2018-12-27T20:49:34.831Z,57.77
2018-12-27T20:52:02.903Z,58.43
2018-12-27T20:54:31.099Z,58.53
2018-12-27T20:56:59.258Z,57.07
2018-12-27T20:59:27.286Z,59.33
2018-12-27T21:01:55.525Z,57.23
2018-12-27T21:04:23.653Z,59.77
2018-12-27T21:06:51.870Z,59.07
2018-12-27T21:09:20.025Z,57.10
2018-12-27T21:11:48.339Z,59.77
2018-12-27T21:14:16.460Z,57.17
2018-12-27T21:16:44.676Z,57.97
2018-12-27T21:19:12.862Z,57.90
2018-12-27T21:21:41.230Z,58.30
2018-12-27T21:24:09.413Z,56.73
2018-12-27T21:26:37.518Z,58.90
2018-12-27T21:29:05.712Z,57.23
2018-12-27T21:31:33.872Z,58.17
2018-12-27T21:34:02.098Z,56.87
2018-12-27T21:36:30.214Z,56.73
2018-12-27T21:38:58.519Z,58.23
2018-12-27T21:41:26.670Z,57.30
2018-12-27T21:43:54.874Z,59.20
2018-12-27T21:46:23.086Z,58.27
2018-12-27T21:48:51.295Z,56.63
2018-12-27T21:51:19.415Z,57.80
2018-12-27T21:53:47.531Z,58.37
2018-12-27T21:56:15.870Z,55.93
2018-12-27T21:58:44.090Z,58.53
2018-12-27T22:01:12.248Z,59.50
2018-12-27T22:03:40.422Z,59.13
2018-12-27T22:06:08.707Z,59.77
2018-12-27T22:08:36.754Z,63.30
2018-12-27T22:11:04.869Z,62.83
2018-12-27T22:13:33.240Z,59.73
2018-12-27T22:16:01.384Z,60.27
2018-12-27T22:18:29.601Z,61.50
2018-12-27T22:20:57.735Z,59.17
2018-12-27T22:23:26.199Z,57.10
2018-12-27T22:25:54.585Z,58.13
2018-12-27T22:28:22.629Z,59.50
2018-12-27T22:30:50.881Z,59.60
2018-12-27T22:33:18.989Z,60.20
2018-12-27T22:35:47.093Z,59.83
2018-12-27T22:38:15.199Z,59.60
2018-12-27T22:40:43.523Z,61.47
2018-12-27T22:43:11.873Z,60.77
2018-12-27T22:45:39.957Z,61.10
2018-12-27T22:48:08.119Z,61.10
2018-12-27T22:50:36.346Z,61.57
2018-12-27T22:53:04.554Z,61.77
2018-12-27T22:55:32.979Z,63.33
2018-12-27T22:58:01.203Z,61.80
2018-12-27T23:00:37.317Z,63.70
2018-12-27T23:03:05.807Z,62.83
2018-12-27T23:05:34.075Z,63.13
2018-12-27T23:08:02.353Z,67.07
2018-12-27T23:10:30.579Z,65.07
2018-12-27T23:12:58.775Z,65.97
2018-12-27T23:15:26.843Z,65.47
2018-12-27T23:17:56.089Z,64.70
2018-12-27T23:20:24.377Z,64.87
2018-12-27T23:22:52.834Z,64.70
2018-12-27T23:25:20.932Z,63.40
2018-12-27T23:27:49.261Z,64.30
2018-12-27T23:30:17.515Z,64.10
2018-12-27T23:32:45.809Z,64.13
2018-12-27T23:35:14.200Z,64.30
2018-12-27T23:37:42.837Z,65.90
2018-12-27T23:40:12.515Z,65.10
2018-12-27T23:42:41.098Z,65.67
2018-12-27T23:45:09.233Z,64.30
2018-12-27T23:47:37.254Z,63.30
2018-12-27T23:50:05.364Z,62.90
2018-12-27T23:52:33.500Z,60.03
2018-12-27T23:55:01.813Z,64.07
2018-12-27T23:57:29.875Z,64.53
2018-12-27T23:59:57.928Z,63.73
